Time;durP1;ratioP1;P1;durP2;ratioP2;P2;SDS_P1;SDS_P2;PMS_P1;PMS_P2;Temp;Humidity;BMP_temperature;BMP_pressure;BME280_temperature;BME280_humidity;BME280_pressure;Samples;Min_cycle;Max_cycle;Signal;HPM_P1;HPM_P2
2022/11/19 00:00:15;;;;;;;4.63;3.88;;;;;;;18.81;65.28;97594.50;2072893;28;20012;-51
2022/11/19 00:01:18;;;;;;;5.68;4.35;;;;;;;18.87;65.02;97596.25;2072856;28;20040;-50
2022/11/19 00:02:20;;;;;;;4.55;3.55;;;;;;;18.88;64.83;97595.19;2074607;28;20504;-49
2022/11/19 00:03:23;;;;;;;4.45;3.80;;;;;;;18.89;64.44;97590.66;2078294;28;20142;-50
2022/11/19 00:04:23;;;;;;;5.00;3.50;;;;;;;18.89;64.66;97591.47;2076048;28;20057;-51
2022/11/19 00:05:25;;;;;;;;;;;;;;;18.78;64.98;97588.75;2071285;28;20056;-48
2022/11/19 00:06:26;;;;;;;4.65;4.22;;;;;;;18.81;65.02;97589.13;2070764;28;20249;-49
2022/11/19 00:07:28;;;;;;;5.13;3.60;;;;;;;18.84;64.82;97596.72;2072347;28;20053;-51
2022/11/19 00:08:29;;;;;;;3.88;3.05;;;;;;;18.89;64.83;97590.66;2072260;28;20058;-48
2022/11/19 00:09:31;;;;;;;;;;;;;;;18.79;65.15;97591.22;2071137;28;20714;-53
2022/11/19 00:10:32;;;;;;;;;;;;;;;18.69;65.12;97586.38;2074900;28;19925;-51
2022/11/19 00:12:54;;;;;;;3.92;3.53;;;;;;;18.78;65.08;97588.75;2069546;28;20045;-52
2022/11/19 00:13:55;;;;;;;5.63;3.75;;;;;;;18.83;65.11;97581.63;2073222;28;20204;-52
2022/11/19 00:14:57;;;;;;;;;;;;;;;18.71;64.98;97578.88;2072075;28;20069;-51
2022/11/19 00:16:02;;;;;;;4.80;3.42;;;;;;;18.76;64.84;97580.94;2070851;28;19924;-53
2022/11/19 00:17:04;;;;;;;4.03;3.35;;;;;;;18.79;65.06;97577.78;2074064;28;20050;-50
2022/11/19 00:18:06;;;;;;;4.40;3.78;;;;;;;18.82;64.76;97558.50;2071699;28;20576;-51
2022/11/19 00:19:10;;;;;;;4.40;3.38;;;;;;;18.83;64.59;97565.50;2077275;28;20646;-48
2022/11/19 00:20:11;;;;;;;4.72;3.05;;;;;;;18.84;64.62;97561.78;2076309;28;20050;-50
2022/11/19 00:21:13;;;;;;;3.63;3.30;;;;;;;18.85;64.71;97568.78;2070147;28;20155;-51
2022/11/19 00:22:14;;;;;;;5.45;3.92;;;;;;;18.84;64.70;97564.47;2072091;28;20049;-52
2022/11/19 00:23:16;;;;;;;;;;;;;;;18.71;65.08;97557.41;2071711;28;20056;-50
2022/11/19 00:24:17;;;;;;;3.80;3.40;;;;;;;18.75;65.18;97566.69;2074239;28;19921;-50
2022/11/19 00:25:19;;;;;;;3.22;2.92;;;;;;;18.77;65.06;97563.75;2072018;28;20186;-53
2022/11/19 00:26:20;;;;;;;4.78;4.03;;;;;;;18.80;64.80;97565.16;2071417;28;20115;-48
2022/11/19 00:27:21;;;;;;;;;;;;;;;18.70;64.90;97563.81;2072600;28;20131;-52
2022/11/19 00:28:22;;;;;;;;;;;;;;;18.62;65.23;97566.84;2073329;28;20040;-46
2022/11/19 00:29:23;;;;;;;5.23;3.97;;;;;;;18.65;65.38;97570.94;2071518;28;19932;-51
2022/11/19 00:30:24;;;;;;;5.05;2.83;;;;;;;18.70;65.04;97574.56;2072590;28;20083;-47
2022/11/19 00:31:26;;;;;;;;;;;;;;;18.64;65.28;97577.38;2070747;28;20132;-48
2022/11/19 00:32:27;;;;;;;4.82;3.67;;;;;;;18.68;65.09;97578.53;2072366;28;20400;-48
2022/11/19 00:33:30;;;;;;;4.30;3.10;;;;;;;18.74;64.93;97585.69;2072285;28;20106;-48
2022/11/19 00:34:31;;;;;;;5.18;3.80;;;;;;;18.78;64.95;97589.59;2071907;28;20062;-47
2022/11/19 00:35:33;;;;;;;;;;;;;;;18.67;65.26;97584.97;2073312;28;20050;-51
2022/11/19 00:36:34;;;;;;;4.35;3.10;;;;;;;18.70;64.91;97590.69;2075395;28;19925;-49
2022/11/19 00:37:35;;;;;;;;;;;;;;;18.61;65.09;97585.84;2073990;28;20063;-50
2022/11/19 00:38:36;;;;;;;5.20;3.38;;;;;;;18.66;65.03;97578.75;2074101;28;19929;-48
2022/11/19 00:39:37;;;;;;;4.70;3.70;;;;;;;18.70;64.77;97581.81;2073544;28;20053;-48
2022/11/19 00:40:41;;;;;;;4.47;3.60;;;;;;;18.69;64.97;97581.00;2071728;28;20117;-50
2022/11/19 00:41:43;;;;;;;4.63;3.80;;;;;;;18.73;64.95;97587.53;2072604;28;20049;-52
2022/11/19 00:43:45;;;;;;;3.92;2.95;;;;;;;18.72;64.72;97580.53;2072279;28;20052;-49
2022/11/19 00:44:06;;;;;;;3.78;3.47;;;;;;;18.69;64.84;97583.69;2072546;28;20046;-50
2022/11/19 00:45:08;;;;;;;4.00;3.60;;;;;;;18.72;64.90;97579.69;2071799;28;20068;-50
2022/11/19 00:46:10;;;;;;;4.43;3.45;;;;;;;18.74;64.73;97577.63;2072936;28;20186;-48
2022/11/19 00:47:12;;;;;;;5.15;3.33;;;;;;;18.74;64.75;97577.63;2071707;28;20045;-49
2022/11/19 00:48:13;;;;;;;4.50;3.38;;;;;;;18.76;64.73;97580.94;2072538;28;20053;-47
2022/11/19 00:49:15;;;;;;;;;;;;;;;18.64;64.89;97572.00;2071976;28;20553;-49
2022/11/19 00:50:16;;;;;;;4.18;3.40;;;;;;;18.66;64.97;97576.06;2072325;28;19925;-50
2022/11/19 00:51:19;;;;;;;;;;;;;;;18.54;65.22;97578.72;2072647;28;20146;-48
2022/11/19 00:52:19;;;;;;;4.47;3.40;;;;;;;18.61;65.26;97577.81;2071423;28;19932;-50
2022/11/19 00:53:21;;;;;;;;;;;;;;;18.54;65.27;97578.72;2073016;28;20076;-50
2022/11/19 00:54:23;;;;;;;5.07;3.38;;;;;;;18.59;65.14;97577.22;2072036;28;19925;-51
2022/11/19 00:55:23;;;;;;;5.20;3.38;;;;;;;18.64;64.85;97588.13;2074993;28;20053;-50
2022/11/19 00:56:26;;;;;;;;;;;;;;;18.57;65.16;97587.38;2073275;28;20815;-47
2022/11/19 00:57:27;;;;;;;6.43;4.28;;;;;;;18.60;65.24;97586.91;2071990;28;20621;-48
2022/11/19 00:58:28;;;;;;;;;;;;;;;18.51;65.56;97589.13;2071588;28;20063;-48
2022/11/19 00:59:29;;;;;;;4.80;3.38;;;;;;;18.55;65.39;97595.66;2071791;28;20329;-48
2022/11/19 01:00:30;;;;;;;;;;;;;;;18.49;65.56;97581.28;2074545;28;20099;-48
2022/11/19 01:01:31;;;;;;;;;;;;;;;18.45;65.69;97585.47;2075987;28;19925;-47
2022/11/19 01:02:33;;;;;;;3.22;2.83;;;;;;;18.51;65.43;97578.38;2072387;28;19933;-48
2022/11/19 01:03:35;;;;;;;5.40;3.55;;;;;;;18.58;65.18;97576.38;2072522;28;20053;-49
2022/11/19 01:04:38;;;;;;;4.55;3.25;;;;;;;18.62;65.08;97569.53;2070784;28;20049;-50
2022/11/19 01:05:39;;;;;;;4.63;3.30;;;;;;;18.63;64.94;97573.84;2071863;28;20056;-50
2022/11/19 01:06:41;;;;;;;;;;;;;;;18.52;65.46;97575.44;2072606;28;20679;-51
2022/11/19 01:07:41;;;;;;;4.28;3.08;;;;;;;18.56;65.48;97569.63;2071968;28;20009;-51
2022/11/19 01:08:43;;;;;;;;;;;;;;;18.46;65.43;97571.00;2070723;28;20054;-50
2022/11/19 01:09:46;;;;;;;5.03;3.25;;;;;;;18.52;65.34;97564.69;2072406;28;19982;-48
2022/11/19 01:10:47;;;;;;;3.47;2.60;;;;;;;18.58;65.26;97567.53;2073760;28;20058;-51
2022/11/19 01:11:48;;;;;;;3.53;2.92;;;;;;;18.60;65.09;97565.44;2070868;28;20134;-49
2022/11/19 01:14:09;;;;;;;4.68;3.15;;;;;;;18.54;65.15;97567.97;2071750;28;19946;-48
2022/11/19 01:15:10;;;;;;;3.35;2.50;;;;;;;18.57;65.23;97569.41;2071014;28;20049;-50
2022/11/19 01:16:13;;;;;;;;;;;;;;;18.48;65.39;97571.59;2072176;28;20144;-48
2022/11/19 01:17:14;;;;;;;4.65;3.10;;;;;;;18.52;65.42;97575.44;2069913;28;19924;-51
2022/11/19 01:18:16;;;;;;;;;;;;;;;18.43;65.55;97571.44;2072154;28;20119;-52
2022/11/19 01:19:18;;;;;;;3.80;2.88;;;;;;;18.50;65.38;97588.28;2072187;28;19921;-49
2022/11/19 01:20:20;;;;;;;4.72;3.35;;;;;;;18.57;64.94;97571.25;2072223;28;20122;-49
2022/11/19 01:21:23;;;;;;;2.63;2.35;;;;;;;18.59;65.17;97572.69;2070148;28;20365;-48
2022/11/19 01:22:24;;;;;;;5.28;3.55;;;;;;;18.60;64.90;97578.84;2072409;28;20107;-47
2022/11/19 01:23:25;;;;;;;;;;;;;;;18.47;65.22;97571.81;2072338;28;20049;-49
2022/11/19 01:24:30;;;;;;;4.70;3.83;;;;;;;18.53;65.28;97573.59;2072232;28;20060;-51
2022/11/19 01:25:31;;;;;;;4.93;3.15;;;;;;;18.57;65.19;97572.06;2071929;28;20540;-51
2022/11/19 01:26:33;;;;;;;;;;;;;;;18.45;65.63;97573.91;2075660;28;20075;-49
2022/11/19 01:27:33;;;;;;;3.30;2.90;;;;;;;18.49;65.22;97567.03;2071599;28;19948;-48
2022/11/19 01:28:35;;;;;;;;;;;;;;;18.41;65.21;97568.16;2073555;28;20464;-48
2022/11/19 01:29:36;;;;;;;3.67;3.08;;;;;;;18.47;65.15;97564.59;2072439;28;19947;-49
2022/11/19 01:30:39;;;;;;;;;;;;;;;18.39;65.48;97564.91;2070983;28;20136;-49
2022/11/19 01:31:40;;;;;;;4.32;3.92;;;;;;;18.45;65.42;97566.69;2071101;28;19928;-49
2022/11/19 01:32:42;;;;;;;;;;;;;;;18.40;65.75;97571.91;2072385;28;20562;-50
2022/11/19 01:33:43;;;;;;;6.10;3.75;;;;;;;18.44;65.39;97578.47;2073096;28;19929;-49
2022/11/19 01:34:45;;;;;;;5.63;3.28;;;;;;;18.51;65.23;97573.00;2070104;28;20049;-53
2022/11/19 01:35:55;;;;;;;5.10;3.38;;;;;;;18.53;65.03;97576.28;2072836;28;20099;-51
2022/11/19 01:36:57;;;;;;;3.78;3.22;;;;;;;18.53;65.00;97577.09;2073146;28;20049;-48
2022/11/19 01:37:59;;;;;;;3.42;2.97;;;;;;;18.56;64.86;97577.69;2071762;28;20654;-53
2022/11/19 01:39:01;;;;;;;3.17;2.55;;;;;;;18.54;64.87;97575.22;2072837;28;20228;-51
2022/11/19 01:40:03;;;;;;;2.97;2.67;;;;;;;18.57;64.81;97576.63;2071384;28;20061;-48
2022/11/19 01:41:05;;;;;;;3.25;2.95;;;;;;;18.57;65.01;97579.31;2071868;28;20057;-49
2022/11/19 01:42:48;;;;;;;4.57;2.80;;;;;;;18.57;64.72;97577.44;2074587;28;20049;-52
2022/11/19 01:43:43;;;;;;;3.30;2.47;;;;;;;18.49;64.97;97575.09;2071647;28;20042;-51
2022/11/19 01:44:59;;;;;;;5.15;3.00;;;;;;;18.47;65.04;97580.69;2071246;28;20049;-53
2022/11/19 01:46:01;;;;;;;3.88;2.65;;;;;;;18.50;65.19;97574.06;2070459;28;20505;-51
2022/11/19 01:47:02;;;;;;;3.05;2.70;;;;;;;18.52;65.11;97578.13;2071742;28;20107;-51
2022/11/19 01:48:06;;;;;;;;;;;;;;;18.40;65.10;97574.59;2073300;28;20052;-48
2022/11/19 01:49:11;;;;;;;3.50;3.20;;;;;;;18.46;65.12;97576.34;2072969;28;19929;-47
2022/11/19 01:50:13;;;;;;;4.88;3.03;;;;;;;18.50;65.14;97572.19;2071770;28;20140;-46
2022/11/19 01:51:21;;;;;;;3.75;2.88;;;;;;;18.52;65.16;97569.25;2072580;28;20164;-47
2022/11/19 01:52:23;;;;;;;3.22;2.85;;;;;;;18.50;65.12;97572.19;2071617;28;20049;-51
2022/11/19 01:53:29;;;;;;;3.78;2.92;;;;;;;18.51;64.89;97573.81;2071474;28;20053;-53
2022/11/19 01:54:35;;;;;;;4.55;2.67;;;;;;;18.51;64.79;97567.63;2071539;28;20045;-49
2022/11/19 01:55:37;;;;;;;3.65;2.75;;;;;;;18.52;64.67;97570.06;2074678;28;20532;-47
2022/11/19 01:56:39;;;;;;;3.65;3.35;;;;;;;18.51;64.92;97568.44;2073192;28;20143;-53
2022/11/19 01:57:40;;;;;;;5.78;3.72;;;;;;;18.52;64.84;97567.38;2072895;28;20083;-49
2022/11/19 01:58:49;;;;;;;;;;;;;;;18.41;65.26;97568.16;2072417;28;20123;-55
2022/11/19 01:59:51;;;;;;;3.70;3.13;;;;;;;18.43;65.05;97565.25;2073911;28;19933;-52
2022/11/19 02:00:53;;;;;;;6.93;3.38;;;;;;;18.46;64.93;97562.94;2074160;28;21364;-48
2022/11/19 02:01:55;;;;;;;4.82;3.13;;;;;;;18.47;64.95;97564.59;2074429;28;20041;-52
2022/11/19 02:02:57;;;;;;;3.60;2.90;;;;;;;18.49;65.09;97570.53;2077198;28;20049;-51
2022/11/19 02:03:59;;;;;;;2.92;2.38;;;;;;;18.50;64.83;97566.81;2072894;28;20057;-47
2022/11/19 02:05:02;;;;;;;4.10;2.95;;;;;;;18.49;64.84;97569.72;2071488;28;20677;-49
2022/11/19 02:06:03;;;;;;;2.60;2.40;;;;;;;18.47;65.12;97574.50;2071828;28;20053;-52
2022/11/19 02:07:09;;;;;;;3.78;2.67;;;;;;;18.49;64.86;97575.09;2072177;28;20059;-47
2022/11/19 02:08:33;;;;;;;3.72;3.10;;;;;;;18.45;64.94;97573.91;2071692;28;20106;-47
2022/11/19 02:09:35;;;;;;;2.97;2.55;;;;;;;18.49;64.84;97567.03;2072467;28;20053;-55
2022/11/19 02:10:47;;;;;;;3.42;2.78;;;;;;;18.48;65.02;97573.47;2073590;28;20075;-57
2022/11/19 02:12:13;;;;;;;4.32;2.53;;;;;;;18.42;64.87;97571.69;2070091;28;20057;-49
2022/11/19 02:13:21;;;;;;;3.50;2.33;;;;;;;18.43;65.01;97571.44;2078418;28;20138;-53
2022/11/19 02:14:44;;;;;;;3.50;3.03;;;;;;;18.41;65.03;97573.53;2075174;28;20049;-49
2022/11/19 02:15:52;;;;;;;4.85;3.63;;;;;;;18.42;65.10;97575.19;2071977;28;20150;-53
2022/11/19 02:17:01;;;;;;;3.05;2.50;;;;;;;18.43;65.03;97576.81;2076199;28;20053;-53
2022/11/19 02:18:20;;;;;;;2.85;2.58;;;;;;;18.43;64.91;97573.31;2076783;28;20060;-50
2022/11/19 02:19:43;;;;;;;3.83;3.00;;;;;;;18.40;65.10;97579.97;2074669;28;20049;-52
2022/11/19 02:21:22;;;;;;;3.55;2.78;;;;;;;18.39;65.24;97585.56;2072117;28;20065;-55
2022/11/19 02:22:57;;;;;;;4.13;3.30;;;;;;;18.34;65.36;97582.75;2066823;28;20489;-52
2022/11/19 02:24:41;;;;;;;4.88;3.10;;;;;;;18.33;65.49;97581.09;2069766;28;20152;-49
2022/11/19 02:26:04;;;;;;;2.78;2.50;;;;;;;18.30;65.42;97580.53;2069544;28;21654;-54
2022/11/19 02:27:43;;;;;;;5.30;3.47;;;;;;;18.36;65.40;97572.56;2072297;28;20051;-51
2022/11/19 02:28:51;;;;;;;3.30;2.97;;;;;;;18.35;65.05;97579.81;2070727;28;20053;-50
2022/11/19 02:30:06;;;;;;;5.10;3.50;;;;;;;18.37;65.11;97572.38;2072444;28;20148;-48
2022/11/19 02:31:11;;;;;;;3.30;3.00;;;;;;;18.39;64.93;97578.34;2073665;28;20107;-50
2022/11/19 02:32:16;;;;;;;3.45;2.70;;;;;;;18.41;64.90;97568.16;2070753;28;20049;-50
2022/11/19 02:33:26;;;;;;;4.85;2.72;;;;;;;18.42;64.87;97572.50;2070587;28;21874;-49
2022/11/19 02:34:31;;;;;;;3.40;2.60;;;;;;;18.44;64.84;97572.25;2071154;28;20189;-50
2022/11/19 02:35:50;;;;;;;2.45;2.25;;;;;;;18.39;65.00;97575.66;2072566;28;20049;-51
2022/11/19 02:36:56;;;;;;;3.67;2.50;;;;;;;18.38;64.82;97568.63;2070136;28;20087;-54
2022/11/19 02:38:24;;;;;;;2.75;2.47;;;;;;;18.37;64.88;97566.19;2073565;28;20171;-49
2022/11/19 02:39:32;;;;;;;3.40;2.53;;;;;;;18.36;65.18;97560.00;2071833;28;20069;-53
2022/11/19 02:40:39;;;;;;;4.13;2.72;;;;;;;18.37;65.15;97564.31;2072091;28;20050;-47
2022/11/19 02:41:54;;;;;;;4.10;2.80;;;;;;;18.37;64.91;97561.63;2070961;28;20137;-53
2022/11/19 02:43:10;;;;;;;3.60;2.75;;;;;;;18.38;65.16;97560.56;2076874;28;20398;-47
2022/11/19 02:46:01;;;;;;;3.65;2.78;;;;;;;18.36;65.22;97562.69;2071013;28;20076;-51
2022/11/19 02:47:05;;;;;;;3.97;2.72;;;;;;;18.37;65.16;97556.25;2071332;28;20517;-51
2022/11/19 02:48:12;;;;;;;4.22;3.75;;;;;;;18.39;65.07;97564.91;2072212;28;20132;-51
2022/11/19 02:49:15;;;;;;;4.03;3.03;;;;;;;18.42;64.75;97566.31;2074096;28;20065;-52
2022/11/19 02:50:22;;;;;;;3.30;2.47;;;;;;;18.38;64.79;97563.25;2068912;28;20064;-49
2022/11/19 02:51:23;;;;;;;3.08;2.78;;;;;;;18.40;65.04;97563.84;2077383;28;20056;-52
2022/11/19 02:52:25;;;;;;;4.45;3.40;;;;;;;18.39;64.80;97562.22;2072119;28;20077;-49
2022/11/19 02:53:27;;;;;;;3.33;2.75;;;;;;;18.39;64.93;97553.34;2072892;28;20045;-51
2022/11/19 02:54:28;;;;;;;4.90;2.95;;;;;;;18.38;65.01;97563.25;2075555;28;20176;-53
2022/11/19 02:55:31;;;;;;;2.78;2.58;;;;;;;18.41;64.78;97562.78;2076463;28;20053;-49
2022/11/19 02:56:51;;;;;;;3.95;2.67;;;;;;;18.36;64.85;97557.31;2074893;28;20460;-50
2022/11/19 02:58:00;;;;;;;2.85;2.55;;;;;;;18.37;64.84;97558.13;2072252;28;20045;-51
2022/11/19 03:04:31;;;;;;;4.22;2.95;;;;;;;18.24;65.33;97567.97;2055514;22;20445;-49
2022/11/19 03:05:34;;;;;;;5.90;2.88;;;;;;;18.28;65.08;97571.06;2038444;28;20070;-52
2022/11/19 03:06:44;;;;;;;2.88;2.50;;;;;;;18.32;65.14;97564.16;2036971;28;20040;-48
2022/11/19 03:07:46;;;;;;;3.10;2.50;;;;;;;18.34;65.02;97561.28;2035503;28;20047;-50
2022/11/19 03:08:48;;;;;;;3.50;2.78;;;;;;;18.35;64.96;97563.72;2037171;28;20059;-48
2022/11/19 03:09:53;;;;;;;4.07;3.25;;;;;;;18.35;64.74;97566.41;2039392;28;20051;-50
2022/11/19 03:11:05;;;;;;;3.85;2.17;;;;;;;18.35;65.25;97571.78;2036635;28;20052;-51
2022/11/19 03:12:12;;;;;;;3.45;2.50;;;;;;;18.33;64.85;97563.16;2035766;28;21128;-51
2022/11/19 03:17:50;;;;;;;4.22;2.45;;;;;;;18.27;65.08;97564.03;2039072;28;20119;-51
2022/11/19 03:18:55;;;;;;;2.90;2.60;;;;;;;18.30;65.13;97560.88;2038296;28;20059;-51
2022/11/19 03:20:01;;;;;;;3.10;2.80;;;;;;;18.31;64.87;97558.00;2038485;28;20048;-49
2022/11/19 03:21:06;;;;;;;4.80;2.72;;;;;;;18.31;64.98;97567.91;2038762;28;20061;-51
2022/11/19 03:22:13;;;;;;;3.88;2.50;;;;;;;18.31;64.87;97565.22;2038294;28;20364;-49
2022/11/19 03:23:20;;;;;;;5.35;2.75;;;;;;;18.30;65.04;97569.78;2038230;28;20158;-50
2022/11/19 03:24:29;;;;;;;2.72;2.33;;;;;;;18.30;64.92;97571.63;2040819;28;20039;-48
2022/11/19 03:25:34;;;;;;;6.28;3.13;;;;;;;18.32;64.91;97572.22;2041524;28;20043;-48
2022/11/19 03:26:40;;;;;;;3.05;2.75;;;;;;;18.30;64.91;97568.94;2037788;28;20497;-51
2022/11/19 03:27:45;;;;;;;3.35;2.72;;;;;;;18.31;64.92;97562.53;2041922;28;20474;-49
2022/11/19 03:28:49;;;;;;;2.80;2.50;;;;;;;18.33;64.90;97564.97;2038323;28;20066;-50
2022/11/19 03:29:55;;;;;;;3.80;2.72;;;;;;;18.33;64.78;97560.47;2038938;28;20052;-50
2022/11/19 03:31:02;;;;;;;4.20;2.78;;;;;;;18.31;64.97;97566.03;2039845;28;20127;-49
2022/11/19 03:32:08;;;;;;;3.40;2.65;;;;;;;18.30;64.83;97563.56;2039431;28;20105;-49
2022/11/19 03:33:17;;;;;;;3.53;2.47;;;;;;;18.30;64.75;97563.56;2037968;28;20063;-55
2022/11/19 03:34:22;;;;;;;3.40;2.63;;;;;;;18.30;65.10;97571.63;2044918;28;20070;-49
2022/11/19 03:35:30;;;;;;;3.67;2.83;;;;;;;18.30;64.73;97568.94;2041309;28;20139;-51
2022/11/19 03:36:35;;;;;;;2.60;1.92;;;;;;;18.30;64.84;97577.00;2042356;28;20051;-49
2022/11/19 03:37:40;;;;;;;2.67;1.90;;;;;;;18.31;64.89;97578.66;2040937;28;20062;-49
2022/11/19 03:38:45;;;;;;;3.67;2.83;;;;;;;18.28;64.90;97573.75;2039717;28;20047;-52
2022/11/19 03:39:49;;;;;;;3.05;2.38;;;;;;;18.30;64.87;97574.31;2040286;28;20150;-51
2022/11/19 03:40:53;;;;;;;2.97;2.67;;;;;;;18.29;64.85;97570.81;2040656;28;20052;-47
2022/11/19 03:42:11;;;;;;;4.15;2.22;;;;;;;18.27;65.20;97572.09;2041733;28;20067;-53
2022/11/19 03:43:16;;;;;;;3.00;2.60;;;;;;;18.28;64.72;97568.38;2040554;28;20055;-48
2022/11/19 03:44:24;;;;;;;2.42;2.22;;;;;;;18.26;64.71;97570.44;2041679;28;20066;-49
2022/11/19 03:45:28;;;;;;;3.45;2.28;;;;;;;18.26;64.85;97563.22;2039951;28;20517;-56
2022/11/19 03:46:34;;;;;;;3.75;2.45;;;;;;;18.27;64.90;97559.47;2038749;28;20058;-52
2022/11/19 03:47:39;;;;;;;3.30;2.55;;;;;;;18.28;64.88;97552.25;2040880;28;20059;-49
2022/11/19 03:48:45;;;;;;;2.63;2.30;;;;;;;18.26;64.72;97554.34;2040286;28;20131;-52
2022/11/19 03:49:51;;;;;;;2.80;2.20;;;;;;;18.27;64.76;97554.09;2040112;28;20051;-48
2022/11/19 03:50:57;;;;;;;2.63;2.38;;;;;;;18.28;64.83;97552.25;2039028;28;20128;-50
2022/11/19 03:52:03;;;;;;;3.83;2.60;;;;;;;18.27;64.78;97553.28;2039145;28;20093;-51
2022/11/19 03:53:05;;;;;;;4.60;2.63;;;;;;;18.25;64.88;97547.34;2038728;28;20477;-52
2022/11/19 03:54:07;;;;;;;2.55;2.10;;;;;;;18.24;65.00;97546.50;2038450;28;20059;-53
2022/11/19 03:55:15;;;;;;;2.47;2.17;;;;;;;18.26;64.85;97547.09;2040350;28;20429;-45
2022/11/19 03:56:22;;;;;;;3.00;2.45;;;;;;;18.26;64.60;97548.97;2038692;28;20078;-49
2022/11/19 03:57:27;;;;;;;3.83;3.05;;;;;;;18.24;64.78;97543.81;2037557;28;20055;-48
2022/11/19 03:58:33;;;;;;;4.68;3.35;;;;;;;18.25;64.95;97547.34;2039589;28;20194;-51
2022/11/19 03:59:35;;;;;;;3.03;2.40;;;;;;;18.24;64.91;97541.16;2040724;28;20092;-50
2022/11/19 04:00:37;;;;;;;3.08;2.60;;;;;;;18.24;64.88;97540.34;2040186;28;20522;-52
2022/11/19 04:01:39;;;;;;;3.08;2.50;;;;;;;18.25;64.72;97542.81;2038760;28;20065;-50
2022/11/19 04:02:40;;;;;;;4.25;2.63;;;;;;;18.24;64.90;97532.28;2041673;28;20051;-49
2022/11/19 04:04:34;;;;;;;;;;;;;;;18.15;65.02;97528.28;2040175;28;20051;-48
2022/11/19 04:05:04;;;;;;;3.50;2.55;;;;;;;18.16;65.01;97521.84;2036456;28;19922;-49
2022/11/19 04:06:07;;;;;;;2.13;1.92;;;;;;;18.20;65.05;97520.38;2038536;28;20213;-50
2022/11/19 04:07:10;;;;;;;3.45;2.58;;;;;;;18.22;64.86;97526.31;2037520;28;20052;-52
2022/11/19 04:08:12;;;;;;;3.08;2.40;;;;;;;18.23;65.01;97526.09;2039814;28;20047;-51
2022/11/19 04:09:12;;;;;;;4.13;2.35;;;;;;;18.23;64.68;97527.97;2038866;28;20047;-49
2022/11/19 04:10:14;;;;;;;;;;;;;;;18.11;65.13;97521.72;2038515;28;20071;-52
2022/11/19 04:11:15;;;;;;;2.50;2.30;;;;;;;18.16;65.06;97528.03;2038343;28;19930;-48
2022/11/19 04:12:17;;;;;;;;;;;;;;;18.06;65.50;97531.28;2039485;28;20055;-48
2022/11/19 04:13:18;;;;;;;2.35;2.10;;;;;;;18.12;65.39;97528.75;2039430;28;20405;-50
2022/11/19 04:14:20;;;;;;;;;;;;;;;18.03;65.62;97531.75;2041179;28;20078;-49
2022/11/19 04:15:21;;;;;;;3.47;2.55;;;;;;;18.10;65.22;97526.28;2040190;28;20517;-51
2022/11/19 04:16:22;;;;;;;;;;;;;;;18.04;65.51;97529.88;2040896;28;20131;-50
2022/11/19 04:17:23;;;;;;;2.63;1.88;;;;;;;18.07;65.21;97535.59;2037449;28;19951;-48
2022/11/19 04:18:24;;;;;;;;;;;;;;;18.02;65.31;97538.13;2039808;28;20081;-51
2022/11/19 04:19:27;;;;;;;3.75;2.40;;;;;;;18.07;65.13;97532.91;2037779;28;19926;-49
2022/11/19 04:20:28;;;;;;;3.58;1.95;;;;;;;18.13;65.29;97533.06;2039768;28;20424;-53
2022/11/19 04:21:29;;;;;;;2.63;2.25;;;;;;;18.16;65.01;97530.72;2038168;28;20066;-48
2022/11/19 04:22:31;;;;;;;;;;;;;;;18.04;65.03;97533.38;2039589;28;20062;-51
2022/11/19 04:23:32;;;;;;;2.35;2.05;;;;;;;18.09;65.26;97527.34;2036147;28;19926;-50
2022/11/19 04:24:33;;;;;;;;;;;;;;;18.04;65.33;97525.31;2038510;28;20055;-48
2022/11/19 04:25:34;;;;;;;;;;;;;;;17.97;65.64;97524.59;2039423;28;20336;-50
2022/11/19 04:26:35;;;;;;;4.53;2.57;;;;;;;18.04;65.37;97519.94;2039565;28;19926;-48
2022/11/19 04:27:36;;;;;;;2.92;2.35;;;;;;;18.09;65.17;97516.59;2038700;28;20081;-51
2022/11/19 04:28:38;;;;;;;;;;;;;;;18.03;65.54;97523.69;2039148;28;20510;-52
2022/11/19 04:29:38;;;;;;;;;;;;;;;17.96;65.58;97527.50;2038518;28;19933;-52
2022/11/19 04:30:40;;;;;;;2.63;2.10;;;;;;;18.02;65.49;97531.94;2038775;28;19976;-51
2022/11/19 04:31:42;;;;;;;3.10;2.53;;;;;;;18.07;65.36;97535.59;2039244;28;20073;-49
2022/11/19 04:32:44;;;;;;;3.22;2.63;;;;;;;18.11;65.10;97535.13;2038594;28;20138;-53
2022/11/19 04:33:44;;;;;;;4.25;2.38;;;;;;;18.15;64.89;97537.16;2038078;28;20051;-50
2022/11/19 04:34:48;;;;;;;;;;;;;;;18.05;65.28;97543.06;2038210;28;20125;-55
2022/11/19 04:35:49;;;;;;;2.78;2.58;;;;;;;18.07;65.13;97545.50;2038905;28;19933;-55
2022/11/19 04:36:50;;;;;;;;;;;;;;;18.00;65.21;97548.28;2039702;28;20142;-54
2022/11/19 04:37:51;;;;;;;3.10;1.95;;;;;;;18.04;65.37;97548.66;2037053;28;19923;-50
2022/11/19 04:38:52;;;;;;;;;;;;;;;17.99;65.53;97548.50;2037153;28;20430;-47
2022/11/19 04:39:54;;;;;;;3.70;3.17;;;;;;;18.03;65.38;97555.06;2038700;28;19948;-48
2022/11/19 04:40:55;;;;;;;3.10;2.25;;;;;;;18.07;65.06;97549.00;2037623;28;20055;-50
2022/11/19 04:41:56;;;;;;;;;;;;;;;17.98;65.30;97553.06;2040388;28;20058;-48
2022/11/19 04:42:57;;;;;;;2.00;1.85;;;;;;;18.03;65.14;97555.06;2039740;28;19926;-49
2022/11/19 04:43:59;;;;;;;;;;;;;;;17.96;65.44;97549.78;2039481;28;20055;-48
2022/11/19 04:44:59;;;;;;;2.67;2.33;;;;;;;18.00;65.58;97550.97;2040332;28;19931;-50
2022/11/19 04:46:01;;;;;;;;;;;;;;;17.94;65.63;97557.25;2039666;28;20134;-47
2022/11/19 04:47:01;;;;;;;;;;;;;;;17.91;65.82;97544.25;2041590;28;20928;-47
2022/11/19 04:48:03;;;;;;;1.80;1.70;;;;;;;17.96;65.46;97555.13;2037778;28;19937;-49
2022/11/19 04:49:05;;;;;;;2.42;2.22;;;;;;;18.02;65.08;97556.91;2039612;28;20075;-49
2022/11/19 04:50:19;;;;;;;2.42;2.05;;;;;;;18.04;65.15;97554.00;2042788;28;20074;-55
2022/11/19 04:51:21;;;;;;;2.83;2.28;;;;;;;18.05;65.24;97552.97;2044334;28;20542;-51
2022/11/19 04:52:22;;;;;;;2.63;2.28;;;;;;;18.07;65.16;97556.25;2039106;28;20051;-52
2022/11/19 04:53:23;;;;;;;;;;;;;;;17.99;65.08;97554.69;2038476;28;20051;-48
2022/11/19 04:54:24;;;;;;;2.50;2.30;;;;;;;18.05;65.20;97561.84;2038621;28;19930;-56
2022/11/19 04:55:25;;;;;;;;;;;;;;;18.01;65.32;97562.53;2039965;28;20173;-48
2022/11/19 04:56:26;;;;;;;;;;;;;;;18.02;65.39;97553.41;2039155;28;19930;-50
2022/11/19 04:57:28;;;;;;;2.77;2.20;;;;;;;18.11;65.05;97552.09;2037646;28;19922;-50
2022/11/19 04:58:29;;;;;;;2.80;2.55;;;;;;;18.21;64.68;97551.53;2039816;28;20047;-48
2022/11/19 04:59:30;;;;;;;;;;;;;;;18.17;64.77;97555.72;2040930;28;20055;-50
2022/11/19 05:00:31;;;;;;;2.28;2.08;;;;;;;18.25;64.53;97550.03;2039596;28;19970;-50
2022/11/19 05:01:35;;;;;;;;;;;;;;;18.21;64.50;97546.16;2040084;28;20063;-49
2022/11/19 05:02:36;;;;;;;2.30;2.10;;;;;;;18.30;64.51;97545.63;2040445;28;20412;-52
2022/11/19 05:03:37;;;;;;;;;;;;;;;18.27;64.60;97543.38;2039942;28;20079;-52
2022/11/19 05:04:38;;;;;;;3.88;2.20;;;;;;;18.33;64.48;97547.03;2039286;28;21046;-49
2022/11/19 05:05:41;;;;;;;;;;;;;;;18.27;64.69;97543.38;2038483;28;20047;-50
2022/11/19 05:06:42;;;;;;;2.45;2.10;;;;;;;18.36;64.28;97548.41;2038896;28;20350;-55
2022/11/19 05:07:43;;;;;;;;;;;;;;;18.33;64.45;97549.72;2036653;28;20061;-50
2022/11/19 05:08:44;;;;;;;2.33;2.13;;;;;;;18.38;64.13;97549.84;2038933;28;21796;-50
2022/11/19 05:09:47;;;;;;;;;;;;;;;18.37;64.51;97555.44;2039181;28;20053;-47
2022/11/19 05:10:48;;;;;;;2.45;2.25;;;;;;;18.40;64.37;97550.44;2038822;28;20885;-49
2022/11/19 05:11:49;;;;;;;;;;;;;;;18.38;64.31;97547.16;2038253;28;20070;-52
2022/11/19 05:12:50;;;;;;;5.93;2.33;;;;;;;18.42;64.12;97542.97;2038155;28;20479;-51
2022/11/19 05:13:51;;;;;;;;;;;;;;;18.40;64.59;97547.75;2039043;28;20063;-47
2022/11/19 05:14:52;;;;;;;2.88;2.22;;;;;;;18.44;64.28;97542.72;2036932;28;19934;-52
2022/11/19 05:15:54;;;;;;;;;;;;;;;18.41;64.43;97548.56;2039053;28;20057;-48
2022/11/19 05:16:54;;;;;;;1.98;1.80;;;;;;;18.46;64.47;97538.78;2038140;28;19939;-50
2022/11/19 05:17:56;;;;;;;;;;;;;;;18.43;64.42;97541.91;2040198;28;20151;-50
2022/11/19 05:18:57;;;;;;;2.78;2.58;;;;;;;18.51;64.11;97538.09;2044715;28;19922;-49
2022/11/19 05:19:59;;;;;;;;;;;;;;;18.46;64.20;97544.13;2036927;28;20506;-51
2022/11/19 05:21:01;;;;;;;3.15;2.60;;;;;;;18.55;64.18;97531.19;2038502;28;19927;-48
2022/11/19 05:22:03;;;;;;;2.65;2.40;;;;;;;18.61;64.02;97533.00;2042062;28;23312;-49
2022/11/19 05:23:10;;;;;;;3.00;2.25;;;;;;;18.65;63.83;97531.47;2040510;28;20050;-45